createdAt,value
2023-04-26T00:01:57.494Z,11.86
2023-04-26T00:05:02.247Z,11.75
2023-04-26T00:08:05.049Z,11.68
2023-04-26T00:11:07.986Z,11.68
2023-04-26T00:14:10.374Z,11.90
2023-04-26T00:17:13.289Z,11.81
2023-04-26T00:20:15.824Z,11.68
2023-04-26T00:23:18.719Z,11.63
2023-04-26T00:26:21.461Z,11.63
2023-04-26T00:29:24.138Z,11.85
2023-04-26T00:32:26.815Z,11.67
2023-04-26T00:35:29.429Z,11.66
2023-04-26T00:38:32.609Z,11.63
2023-04-26T00:41:35.241Z,11.63
2023-04-26T00:44:40.151Z,11.65
2023-04-26T00:47:43.277Z,11.67
2023-04-26T00:50:47.747Z,11.74
2023-04-26T00:53:50.485Z,11.88
2023-04-26T00:56:53.354Z,11.65
2023-04-26T00:59:57.635Z,11.60
2023-04-26T01:03:00.411Z,11.63
2023-04-26T01:06:03.213Z,11.46
2023-04-26T01:09:11.224Z,11.53
2023-04-26T01:12:14.559Z,11.46
2023-04-26T01:15:17.300Z,11.31
2023-04-26T01:18:20.403Z,11.32
2023-04-26T01:21:23.481Z,11.34
2023-04-26T01:24:26.052Z,11.20
2023-04-26T01:27:28.593Z,11.09
2023-04-26T01:30:31.160Z,11.05
2023-04-26T01:33:33.700Z,11.10
2023-04-26T01:36:36.276Z,11.03
2023-04-26T01:39:38.844Z,11.04
2023-04-26T01:42:41.819Z,10.88
2023-04-26T01:45:48.117Z,10.89
2023-04-26T01:49:04.112Z,10.80
2023-04-26T01:52:06.707Z,10.72
2023-04-26T01:55:09.453Z,10.69
2023-04-26T01:58:12.041Z,10.69
2023-04-26T02:01:14.835Z,10.64
2023-04-26T02:04:20.545Z,10.73
2023-04-26T02:07:22.825Z,10.71
2023-04-26T02:10:28.119Z,10.62
2023-04-26T02:13:31.170Z,10.68
2023-04-26T02:16:34.152Z,10.63
2023-04-26T02:19:36.584Z,10.66
2023-04-26T02:22:39.620Z,10.63
2023-04-26T02:25:42.575Z,10.60
2023-04-26T02:28:45.772Z,10.62
2023-04-26T02:31:49.143Z,10.63
2023-04-26T02:34:52.221Z,10.65
2023-04-26T02:37:55.367Z,10.52
2023-04-26T02:40:59.596Z,10.37
2023-04-26T02:44:01.899Z,10.35
2023-04-26T02:47:04.992Z,10.42
2023-04-26T02:50:08.520Z,10.35
2023-04-26T02:53:11.669Z,10.40
2023-04-26T02:56:14.320Z,10.32
2023-04-26T02:59:17.282Z,10.40
2023-04-26T03:02:19.780Z,10.34
2023-04-26T03:05:23.140Z,10.36
2023-04-26T03:08:25.687Z,10.32
2023-04-26T03:11:28.812Z,10.26
2023-04-26T03:14:32.182Z,10.29
2023-04-26T03:17:35.157Z,10.25
2023-04-26T03:20:38.161Z,10.39
2023-04-26T03:23:41.131Z,10.34
2023-04-26T03:26:44.073Z,10.18
2023-04-26T03:29:47.015Z,10.20
2023-04-26T03:32:49.698Z,10.11
2023-04-26T03:35:52.782Z,10.10
2023-04-26T03:38:55.149Z,10.08
2023-04-26T03:41:58.013Z,10.14
2023-04-26T03:45:00.365Z,10.24
2023-04-26T03:48:03.328Z,10.18
2023-04-26T03:51:06.187Z,10.20
2023-04-26T03:54:09.112Z,10.23
2023-04-26T03:57:11.425Z,10.15
2023-04-26T04:00:15.164Z,10.13
2023-04-26T04:03:18.154Z,10.12
2023-04-26T04:06:21.855Z,10.11
2023-04-26T04:09:25.361Z,10.13
2023-04-26T04:12:29.434Z,10.16
2023-04-26T04:18:34.879Z,10.24
2023-04-26T04:21:37.516Z,10.34
2023-04-26T04:24:41.993Z,10.36
2023-04-26T04:27:45.255Z,10.42
2023-04-26T04:30:48.298Z,10.42
2023-04-26T04:33:50.979Z,10.38
2023-04-26T04:36:54.348Z,10.33
2023-04-26T04:39:56.709Z,10.37
2023-04-26T04:43:00.986Z,10.40
2023-04-26T04:46:03.656Z,10.50
2023-04-26T04:49:09.954Z,10.55
2023-04-26T04:52:12.314Z,10.64
2023-04-26T04:55:15.190Z,10.60
2023-04-26T04:58:17.909Z,10.57
2023-04-26T05:01:21.931Z,10.64
2023-04-26T05:04:24.669Z,10.65
2023-04-26T05:07:29.112Z,10.64
2023-04-26T05:10:31.751Z,10.57
2023-04-26T05:13:34.867Z,10.54
2023-04-26T05:16:38.477Z,10.41
2023-04-26T05:19:41.608Z,10.46
2023-04-26T05:22:43.989Z,10.69
2023-04-26T05:25:47.793Z,10.65
2023-04-26T05:28:50.706Z,10.64
2023-04-26T05:31:53.763Z,10.69
2023-04-26T05:34:57.187Z,10.64
2023-04-26T05:38:00.085Z,10.74
2023-04-26T05:41:02.890Z,10.76
2023-04-26T05:44:06.269Z,10.88
2023-04-26T05:47:09.134Z,10.87
2023-04-26T05:50:12.062Z,10.85
2023-04-26T05:53:14.448Z,10.93
2023-04-26T05:56:17.385Z,11.17
2023-04-26T05:59:19.657Z,11.22
2023-04-26T06:02:22.740Z,11.10
2023-04-26T06:05:26.449Z,11.24
2023-04-26T06:08:29.234Z,11.21
2023-04-26T06:11:31.915Z,11.24
2023-04-26T06:14:34.575Z,11.26
2023-04-26T06:17:37.395Z,11.46
2023-04-26T06:20:40.057Z,11.46
2023-04-26T06:23:42.981Z,11.42
2023-04-26T06:26:45.961Z,11.64
2023-04-26T06:29:48.802Z,11.70
2023-04-26T06:32:52.696Z,11.88
2023-04-26T06:35:55.753Z,12.04
2023-04-26T06:38:59.115Z,12.14
2023-04-26T06:42:02.102Z,12.14
2023-04-26T06:45:07.762Z,12.35
2023-04-26T06:48:10.573Z,12.42
2023-04-26T06:51:13.628Z,12.58
2023-04-26T06:54:16.391Z,12.66
2023-04-26T06:57:19.014Z,12.87
2023-04-26T07:00:21.912Z,13.19
2023-04-26T07:03:24.852Z,13.31
2023-04-26T07:06:27.676Z,13.36
2023-04-26T07:09:30.337Z,13.34
2023-04-26T07:12:32.972Z,13.43
2023-04-26T07:15:36.417Z,13.76
2023-04-26T07:18:40.126Z,13.91
2023-04-26T07:21:45.037Z,13.87
2023-04-26T07:24:47.618Z,13.91
2023-04-26T07:27:51.966Z,14.00
2023-04-26T07:30:54.529Z,14.34
2023-04-26T07:33:57.450Z,14.79
2023-04-26T07:37:00.572Z,15.27
2023-04-26T07:40:04.985Z,15.40
2023-04-26T07:43:07.624Z,15.35
2023-04-26T07:46:10.489Z,15.50
2023-04-26T07:49:13.614Z,15.78
2023-04-26T07:52:16.185Z,15.79
2023-04-26T07:55:18.770Z,15.86
2023-04-26T07:58:21.654Z,16.15
2023-04-26T08:01:24.236Z,16.54
2023-04-26T08:04:33.996Z,16.76
2023-04-26T08:07:36.660Z,16.63
2023-04-26T08:10:42.843Z,16.81
2023-04-26T08:13:45.234Z,16.84
2023-04-26T08:16:49.452Z,16.75
2023-04-26T08:19:51.851Z,17.32
2023-04-26T08:22:58.169Z,17.80
2023-04-26T08:26:00.583Z,18.13
2023-04-26T08:29:03.521Z,18.14
2023-04-26T08:32:05.913Z,18.22
2023-04-26T08:35:09.981Z,18.98
2023-04-26T08:38:12.297Z,19.57
2023-04-26T08:41:15.459Z,20.43
2023-04-26T08:44:19.550Z,20.88
2023-04-26T08:47:29.309Z,21.23
2023-04-26T08:50:33.661Z,21.64
2023-04-26T08:53:37.240Z,22.29
2023-04-26T08:56:41.171Z,22.81
2023-04-26T08:59:44.421Z,22.51
2023-04-26T09:02:47.986Z,22.15
2023-04-26T09:05:50.960Z,22.50
2023-04-26T09:08:54.374Z,22.57
2023-04-26T09:11:59.727Z,22.14
2023-04-26T09:15:02.598Z,21.96
2023-04-26T09:18:18.754Z,22.07
2023-04-26T09:21:21.284Z,22.68
2023-04-26T09:24:24.229Z,23.35
2023-04-26T09:27:37.018Z,23.47
2023-04-26T09:30:40.204Z,23.58
2023-04-26T09:34:12.168Z,23.97
2023-04-26T09:37:15.267Z,24.20
2023-04-26T09:40:21.508Z,24.50
2023-04-26T09:43:24.466Z,24.67
2023-04-26T09:46:26.851Z,25.00
2023-04-26T09:49:31.820Z,25.07
2023-04-26T09:52:42.614Z,25.21
2023-04-26T09:55:45.594Z,25.21
2023-04-26T09:58:47.813Z,25.25
2023-04-26T10:01:50.679Z,25.32
2023-04-26T10:04:54.493Z,25.51
2023-04-26T10:07:57.305Z,25.70
2023-04-26T10:11:01.704Z,26.11
2023-04-26T10:14:04.469Z,26.11
2023-04-26T10:17:07.353Z,25.41
2023-04-26T10:20:12.076Z,24.96
2023-04-26T10:23:22.485Z,24.53
2023-04-26T10:26:43.767Z,23.85
2023-04-26T10:29:55.559Z,23.30
2023-04-26T10:32:58.264Z,23.17
2023-04-26T10:36:07.995Z,23.71
2023-04-26T10:39:17.064Z,24.13
2023-04-26T10:42:26.582Z,24.22
2023-04-26T10:45:30.339Z,24.22
2023-04-26T10:48:33.217Z,24.39
2023-04-26T10:51:35.853Z,23.84
2023-04-26T10:54:57.996Z,23.65
2023-04-26T10:58:01.421Z,23.25
2023-04-26T11:01:08.493Z,22.70
2023-04-26T11:04:11.841Z,22.61
2023-04-26T11:07:14.580Z,21.76
2023-04-26T11:10:23.356Z,21.07
2023-04-26T11:13:25.972Z,20.82
2023-04-26T11:16:28.972Z,21.15
2023-04-26T11:19:32.015Z,21.07
2023-04-26T11:22:34.876Z,20.98
2023-04-26T11:25:39.411Z,21.49
2023-04-26T11:28:44.535Z,21.89
2023-04-26T11:31:54.255Z,21.60
2023-04-26T11:35:00.185Z,21.39
2023-04-26T11:38:04.413Z,20.99
2023-04-26T11:41:08.020Z,20.44
2023-04-26T11:44:11.615Z,19.80
2023-04-26T11:47:17.384Z,19.31
2023-04-26T11:50:20.912Z,19.18
2023-04-26T11:53:24.918Z,19.30
2023-04-26T11:56:27.539Z,19.58
2023-04-26T11:59:30.901Z,20.24
2023-04-26T12:02:35.533Z,20.86
2023-04-26T12:05:38.632Z,21.17
2023-04-26T12:08:41.472Z,20.99
2023-04-26T12:11:54.195Z,20.37
2023-04-26T12:14:56.459Z,19.79
2023-04-26T12:18:00.930Z,19.33
2023-04-26T12:21:03.321Z,19.20
2023-04-26T12:24:06.370Z,19.53
2023-04-26T12:27:08.633Z,19.37
2023-04-26T12:30:12.127Z,18.85
2023-04-26T12:33:17.698Z,18.46
2023-04-26T12:36:21.180Z,18.01
2023-04-26T12:39:23.617Z,17.85
2023-04-26T12:42:26.808Z,17.74
2023-04-26T12:45:29.272Z,17.64
2023-04-26T12:48:32.247Z,17.84
2023-04-26T12:51:34.544Z,18.27
2023-04-26T12:54:37.584Z,18.48
2023-04-26T12:57:40.773Z,18.61
2023-04-26T13:00:44.709Z,18.66
2023-04-26T13:03:47.405Z,18.39
2023-04-26T13:06:50.600Z,18.32
2023-04-26T13:09:52.954Z,18.64
2023-04-26T13:12:57.881Z,19.11
2023-04-26T13:16:00.196Z,19.52
2023-04-26T13:19:03.135Z,19.33
2023-04-26T13:22:08.243Z,18.98
2023-04-26T13:25:13.178Z,18.94
2023-04-26T13:28:15.746Z,19.01
2023-04-26T13:31:19.312Z,18.83
2023-04-26T13:34:21.964Z,18.59
2023-04-26T13:37:26.904Z,18.48
2023-04-26T13:40:29.206Z,18.50
2023-04-26T13:43:32.289Z,18.73
2023-04-26T13:46:34.736Z,18.81
2023-04-26T13:49:38.408Z,18.80
2023-04-26T13:52:40.951Z,18.53
2023-04-26T13:55:43.813Z,18.20
2023-04-26T13:58:46.148Z,17.73
2023-04-26T14:01:49.082Z,17.31
2023-04-26T14:04:52.287Z,17.13
2023-04-26T14:07:55.374Z,16.84
2023-04-26T14:10:58.038Z,16.68
2023-04-26T14:14:00.885Z,16.64
2023-04-26T14:17:03.706Z,16.75
2023-04-26T14:20:08.351Z,16.88
2023-04-26T14:23:11.285Z,17.06
2023-04-26T14:26:13.870Z,17.01
2023-04-26T14:29:16.742Z,16.78
2023-04-26T14:32:19.155Z,16.66
2023-04-26T14:35:22.009Z,16.47
2023-04-26T14:38:24.983Z,16.27
2023-04-26T14:41:27.958Z,16.07
2023-04-26T14:44:30.467Z,15.93
2023-04-26T14:47:33.474Z,15.99
2023-04-26T14:50:36.450Z,15.92
2023-04-26T14:53:41.993Z,15.80
2023-04-26T14:56:44.574Z,15.74
2023-04-26T14:59:48.143Z,15.49
2023-04-26T15:02:50.808Z,15.40
2023-04-26T15:05:53.736Z,15.30
2023-04-26T15:08:56.303Z,15.53
2023-04-26T15:11:59.145Z,15.61
2023-04-26T15:15:01.572Z,15.54
2023-04-26T15:18:04.753Z,15.54
2023-04-26T15:21:07.153Z,15.49
2023-04-26T15:24:10.122Z,15.36
2023-04-26T15:27:12.751Z,15.25
2023-04-26T15:30:15.693Z,15.12
2023-04-26T15:33:18.178Z,14.98
2023-04-26T15:36:22.088Z,14.96
2023-04-26T15:39:24.375Z,14.93
2023-04-26T15:42:27.173Z,14.91
2023-04-26T15:45:29.474Z,14.59
2023-04-26T15:48:32.377Z,14.41
2023-04-26T15:51:34.727Z,14.48
2023-04-26T15:54:37.940Z,14.32
2023-04-26T15:57:41.648Z,14.39
2023-04-26T16:00:44.613Z,14.30
2023-04-26T16:03:47.912Z,14.29
2023-04-26T16:06:50.625Z,14.29
2023-04-26T16:09:53.312Z,14.29
2023-04-26T16:12:56.593Z,14.33
2023-04-26T16:15:59.825Z,14.54
2023-04-26T16:19:02.449Z,14.54
2023-04-26T16:22:05.080Z,14.52
2023-04-26T16:25:08.733Z,14.37
2023-04-26T16:28:11.996Z,14.21
2023-04-26T16:31:14.679Z,14.33
2023-04-26T16:34:17.326Z,14.32
2023-04-26T16:37:20.057Z,14.40
2023-04-26T16:40:23.677Z,14.24
2023-04-26T16:43:30.280Z,14.13
2023-04-26T16:46:33.019Z,14.01
2023-04-26T16:49:35.707Z,13.93
2023-04-26T16:52:38.650Z,13.84
2023-04-26T16:55:41.288Z,13.89
2023-04-26T16:58:44.451Z,13.73
2023-04-26T17:01:47.374Z,13.69
2023-04-26T17:04:50.571Z,13.53
2023-04-26T17:07:53.141Z,13.46
2023-04-26T17:10:56.217Z,13.48
2023-04-26T17:13:58.859Z,13.31
2023-04-26T17:17:01.486Z,13.26
2023-04-26T17:20:06.578Z,13.11
2023-04-26T17:23:09.264Z,13.05
2023-04-26T17:26:11.908Z,13.15
2023-04-26T17:29:14.505Z,13.12
2023-04-26T17:32:17.631Z,13.09
2023-04-26T17:35:20.206Z,13.11
2023-04-26T17:38:22.827Z,13.02
2023-04-26T17:41:25.610Z,12.95
2023-04-26T17:44:28.192Z,12.94
2023-04-26T17:47:31.368Z,12.93
2023-04-26T17:50:33.977Z,12.85
2023-04-26T17:53:36.566Z,12.75
2023-04-26T17:56:39.155Z,12.74
2023-04-26T17:59:41.948Z,12.65
2023-04-26T18:02:44.664Z,12.69
2023-04-26T18:05:47.644Z,12.59
2023-04-26T18:08:50.292Z,12.63
2023-04-26T18:11:52.891Z,12.66
2023-04-26T18:14:55.859Z,12.65
2023-04-26T18:17:58.467Z,12.58
2023-04-26T18:21:01.121Z,12.62
2023-04-26T18:24:03.834Z,12.60
2023-04-26T18:27:07.182Z,12.40
2023-04-26T18:30:10.265Z,12.35
2023-04-26T18:33:12.947Z,12.26
2023-04-26T18:36:16.408Z,12.24
2023-04-26T18:39:19.114Z,12.33
2023-04-26T18:42:21.676Z,12.28
2023-04-26T18:45:24.245Z,12.19
2023-04-26T18:48:26.922Z,12.18
2023-04-26T18:51:29.673Z,12.08
2023-04-26T18:54:33.197Z,12.07
2023-04-26T18:57:36.035Z,11.99
2023-04-26T19:00:38.745Z,11.97
2023-04-26T19:03:42.748Z,11.96
2023-04-26T19:06:45.502Z,11.97
2023-04-26T19:09:54.143Z,11.96
2023-04-26T19:12:57.701Z,11.94
2023-04-26T19:16:00.963Z,11.82
2023-04-26T19:19:03.603Z,11.88
2023-04-26T19:22:06.327Z,11.85
2023-04-26T19:25:09.221Z,11.76
2023-04-26T19:28:11.795Z,11.73
2023-04-26T19:31:14.547Z,11.67
2023-04-26T19:34:17.466Z,11.63
2023-04-26T19:37:20.363Z,11.58
2023-04-26T19:40:22.652Z,11.54
2023-04-26T19:43:25.619Z,11.54
2023-04-26T19:46:27.913Z,11.54
2023-04-26T19:49:31.010Z,11.49
2023-04-26T19:52:33.312Z,11.49
2023-04-26T19:55:37.002Z,11.53
2023-04-26T19:58:39.443Z,11.54
2023-04-26T20:01:42.409Z,11.32
2023-04-26T20:04:45.131Z,11.25
2023-04-26T20:07:47.687Z,11.25
2023-04-26T20:10:50.298Z,11.21
2023-04-26T20:13:52.880Z,11.21
2023-04-26T20:16:55.798Z,11.17
2023-04-26T20:19:58.425Z,11.10
2023-04-26T20:23:01.110Z,11.09
2023-04-26T20:26:03.939Z,11.05
2023-04-26T20:29:06.813Z,11.06
2023-04-26T20:32:09.491Z,11.04
2023-04-26T20:35:13.760Z,11.05
2023-04-26T20:38:16.556Z,11.06
2023-04-26T20:41:19.124Z,10.97
2023-04-26T20:44:21.850Z,10.98
2023-04-26T20:47:24.506Z,10.96
2023-04-26T20:50:27.223Z,10.90
2023-04-26T20:53:29.872Z,10.87
2023-04-26T20:56:32.382Z,10.82
2023-04-26T20:59:35.080Z,10.80
2023-04-26T21:02:38.290Z,10.78
2023-04-26T21:05:41.072Z,10.77
2023-04-26T21:08:43.737Z,10.71
2023-04-26T21:11:46.420Z,10.72
2023-04-26T21:14:48.987Z,10.68
2023-04-26T21:17:51.875Z,10.67
2023-04-26T21:20:54.894Z,10.67
2023-04-26T21:23:57.478Z,10.62
2023-04-26T21:27:00.108Z,10.57
2023-04-26T21:30:02.636Z,10.57
2023-04-26T21:33:05.294Z,10.57
2023-04-26T21:36:07.949Z,10.56
2023-04-26T21:39:11.889Z,10.53
2023-04-26T21:42:14.598Z,10.49
2023-04-26T21:45:17.227Z,10.51
2023-04-26T21:48:19.837Z,10.46
2023-04-26T21:51:22.440Z,10.48
2023-04-26T21:54:25.082Z,10.49
2023-04-26T21:57:27.628Z,10.44
2023-04-26T22:00:30.200Z,10.40
2023-04-26T22:03:33.203Z,10.31
2023-04-26T22:06:35.695Z,10.23
2023-04-26T22:09:38.582Z,10.19
2023-04-26T22:12:41.179Z,10.14
2023-04-26T22:15:44.041Z,10.16
2023-04-26T22:18:46.546Z,10.17
2023-04-26T22:21:49.680Z,10.12
2023-04-26T22:24:51.965Z,10.10
2023-04-26T22:27:54.843Z,10.09
2023-04-26T22:30:57.171Z,10.11
2023-04-26T22:34:00.025Z,10.13
2023-04-26T22:37:17.260Z,10.11
2023-04-26T22:40:23.824Z,10.12
2023-04-26T22:43:26.111Z,10.11
2023-04-26T22:46:29.094Z,10.13
2023-04-26T22:49:31.468Z,10.19
2023-04-26T22:52:34.846Z,10.11
2023-04-26T22:55:37.095Z,10.09
2023-04-26T22:58:40.070Z,10.11
2023-04-26T23:01:42.434Z,10.09
2023-04-26T23:04:46.266Z,10.05
2023-04-26T23:07:48.605Z,10.05
2023-04-26T23:10:51.456Z,10.05
2023-04-26T23:13:54.852Z,10.08
2023-04-26T23:17:00.972Z,10.06
2023-04-26T23:20:11.774Z,10.01
2023-04-26T23:23:14.631Z,10.00
2023-04-26T23:26:16.980Z,10.05
2023-04-26T23:29:19.832Z,10.09
2023-04-26T23:32:22.169Z,10.04
2023-04-26T23:35:25.120Z,9.99
2023-04-26T23:38:27.683Z,9.98
2023-04-26T23:41:30.949Z,10.05
2023-04-26T23:44:33.460Z,9.99
2023-04-26T23:47:36.608Z,9.98
2023-04-26T23:50:38.927Z,9.92
2023-04-26T23:53:41.847Z,9.82
2023-04-26T23:56:44.105Z,9.79
2023-04-26T23:59:47.005Z,9.80
